sensor_id;sensor_type;location;lat;lon;timestamp;P1;durP1;ratioP1;P2;durP2;ratioP2
5805;SDS011;2929;50.810;8.342;2024-03-25T00:00:45;8.73;;;3.50;;
5805;SDS011;2929;50.810;8.342;2024-03-25T00:03:13;15.00;;;4.13;;
5805;SDS011;2929;50.810;8.342;2024-03-25T00:05:39;11.47;;;3.87;;
5805;SDS011;2929;50.810;8.342;2024-03-25T00:08:06;10.30;;;4.10;;
5805;SDS011;2929;50.810;8.342;2024-03-25T00:10:33;19.20;;;4.60;;
5805;SDS011;2929;50.810;8.342;2024-03-25T00:13:03;7.10;;;3.20;;
5805;SDS011;2929;50.810;8.342;2024-03-25T00:15:29;18.93;;;4.33;;
5805;SDS011;2929;50.810;8.342;2024-03-25T00:17:57;13.17;;;4.40;;
5805;SDS011;2929;50.810;8.342;2024-03-25T00:20:23;24.20;;;4.93;;
5805;SDS011;2929;50.810;8.342;2024-03-25T00:22:52;11.53;;;3.90;;
5805;SDS011;2929;50.810;8.342;2024-03-25T00:25:18;7.97;;;3.60;;
5805;SDS011;2929;50.810;8.342;2024-03-25T00:27:45;11.13;;;3.87;;
5805;SDS011;2929;50.810;8.342;2024-03-25T00:30:14;11.17;;;3.90;;
5805;SDS011;2929;50.810;8.342;2024-03-25T00:32:41;10.03;;;3.90;;
5805;SDS011;2929;50.810;8.342;2024-03-25T00:35:07;11.27;;;4.50;;
5805;SDS011;2929;50.810;8.342;2024-03-25T00:37:35;11.10;;;4.30;;
5805;SDS011;2929;50.810;8.342;2024-03-25T00:40:01;13.07;;;4.23;;
5805;SDS011;2929;50.810;8.342;2024-03-25T00:42:29;9.93;;;3.93;;
5805;SDS011;2929;50.810;8.342;2024-03-25T00:44:56;7.50;;;4.07;;
5805;SDS011;2929;50.810;8.342;2024-03-25T00:47:24;10.70;;;4.10;;
5805;SDS011;2929;50.810;8.342;2024-03-25T00:49:51;14.43;;;3.80;;
5805;SDS011;2929;50.810;8.342;2024-03-25T00:52:18;9.20;;;3.63;;
5805;SDS011;2929;50.810;8.342;2024-03-25T00:54:45;7.63;;;3.10;;
5805;SDS011;2929;50.810;8.342;2024-03-25T00:57:12;12.73;;;4.00;;
5805;SDS011;2929;50.810;8.342;2024-03-25T00:59:38;8.60;;;3.77;;
5805;SDS011;2929;50.810;8.342;2024-03-25T01:02:06;9.07;;;3.40;;
5805;SDS011;2929;50.810;8.342;2024-03-25T01:04:34;5.60;;;3.57;;
5805;SDS011;2929;50.810;8.342;2024-03-25T01:07:02;7.00;;;3.70;;
5805;SDS011;2929;50.810;8.342;2024-03-25T01:09:30;12.03;;;4.00;;
5805;SDS011;2929;50.810;8.342;2024-03-25T01:11:57;7.30;;;4.30;;
5805;SDS011;2929;50.810;8.342;2024-03-25T01:14:23;10.77;;;4.13;;
5805;SDS011;2929;50.810;8.342;2024-03-25T01:16:51;17.43;;;4.23;;
5805;SDS011;2929;50.810;8.342;2024-03-25T01:19:17;11.10;;;3.50;;
5805;SDS011;2929;50.810;8.342;2024-03-25T01:21:49;11.93;;;3.67;;
5805;SDS011;2929;50.810;8.342;2024-03-25T01:24:21;11.17;;;3.90;;
5805;SDS011;2929;50.810;8.342;2024-03-25T01:26:48;19.00;;;5.07;;
5805;SDS011;2929;50.810;8.342;2024-03-25T01:29:14;12.20;;;4.40;;
5805;SDS011;2929;50.810;8.342;2024-03-25T01:31:41;18.13;;;4.20;;
5805;SDS011;2929;50.810;8.342;2024-03-25T01:34:08;14.27;;;4.07;;
5805;SDS011;2929;50.810;8.342;2024-03-25T01:36:35;12.43;;;3.93;;
5805;SDS011;2929;50.810;8.342;2024-03-25T01:39:03;11.00;;;4.57;;
5805;SDS011;2929;50.810;8.342;2024-03-25T01:41:31;7.83;;;2.80;;
5805;SDS011;2929;50.810;8.342;2024-03-25T01:43:57;9.93;;;3.20;;
5805;SDS011;2929;50.810;8.342;2024-03-25T01:46:24;15.50;;;3.40;;
5805;SDS011;2929;50.810;8.342;2024-03-25T01:48:51;11.80;;;4.17;;
5805;SDS011;2929;50.810;8.342;2024-03-25T01:51:19;14.43;;;3.73;;
5805;SDS011;2929;50.810;8.342;2024-03-25T01:53:46;13.40;;;3.60;;
5805;SDS011;2929;50.810;8.342;2024-03-25T01:56:15;18.50;;;5.03;;
5805;SDS011;2929;50.810;8.342;2024-03-25T01:58:42;12.27;;;3.57;;
5805;SDS011;2929;50.810;8.342;2024-03-25T02:01:09;12.57;;;3.00;;
5805;SDS011;2929;50.810;8.342;2024-03-25T02:03:39;16.90;;;3.80;;
5805;SDS011;2929;50.810;8.342;2024-03-25T02:06:07;12.07;;;3.57;;
5805;SDS011;2929;50.810;8.342;2024-03-25T02:08:35;19.97;;;5.07;;
5805;SDS011;2929;50.810;8.342;2024-03-25T02:11:04;29.50;;;4.90;;
5805;SDS011;2929;50.810;8.342;2024-03-25T02:13:32;10.80;;;3.27;;
5805;SDS011;2929;50.810;8.342;2024-03-25T02:16:00;5.60;;;2.60;;
5805;SDS011;2929;50.810;8.342;2024-03-25T02:18:26;19.60;;;3.67;;
5805;SDS011;2929;50.810;8.342;2024-03-25T02:20:56;19.67;;;3.37;;
5805;SDS011;2929;50.810;8.342;2024-03-25T02:23:22;6.90;;;2.40;;
5805;SDS011;2929;50.810;8.342;2024-03-25T02:25:51;13.97;;;3.03;;
5805;SDS011;2929;50.810;8.342;2024-03-25T02:28:17;12.67;;;3.30;;
5805;SDS011;2929;50.810;8.342;2024-03-25T02:30:45;9.67;;;3.03;;
5805;SDS011;2929;50.810;8.342;2024-03-25T02:33:13;12.23;;;3.63;;
5805;SDS011;2929;50.810;8.342;2024-03-25T02:35:41;12.97;;;3.70;;
5805;SDS011;2929;50.810;8.342;2024-03-25T02:38:08;9.50;;;2.70;;
5805;SDS011;2929;50.810;8.342;2024-03-25T02:40:35;15.47;;;3.83;;
5805;SDS011;2929;50.810;8.342;2024-03-25T02:43:04;9.73;;;3.00;;
5805;SDS011;2929;50.810;8.342;2024-03-25T02:45:32;11.47;;;3.30;;
5805;SDS011;2929;50.810;8.342;2024-03-25T02:47:58;7.87;;;3.17;;
5805;SDS011;2929;50.810;8.342;2024-03-25T02:50:27;11.80;;;3.87;;
5805;SDS011;2929;50.810;8.342;2024-03-25T02:52:53;9.30;;;2.57;;
5805;SDS011;2929;50.810;8.342;2024-03-25T02:55:20;5.53;;;3.10;;
5805;SDS011;2929;50.810;8.342;2024-03-25T02:57:46;6.00;;;3.00;;
5805;SDS011;2929;50.810;8.342;2024-03-25T03:00:15;5.70;;;2.50;;
5805;SDS011;2929;50.810;8.342;2024-03-25T03:02:42;10.73;;;2.77;;
5805;SDS011;2929;50.810;8.342;2024-03-25T03:05:09;8.77;;;2.43;;
5805;SDS011;2929;50.810;8.342;2024-03-25T03:07:36;7.90;;;2.53;;
5805;SDS011;2929;50.810;8.342;2024-03-25T03:10:03;5.53;;;2.37;;
5805;SDS011;2929;50.810;8.342;2024-03-25T03:12:31;6.70;;;1.93;;
5805;SDS011;2929;50.810;8.342;2024-03-25T03:14:58;2.53;;;2.20;;
5805;SDS011;2929;50.810;8.342;2024-03-25T03:17:26;3.07;;;1.73;;
5805;SDS011;2929;50.810;8.342;2024-03-25T03:19:53;4.83;;;1.60;;
5805;SDS011;2929;50.810;8.342;2024-03-25T03:22:19;2.73;;;1.60;;
5805;SDS011;2929;50.810;8.342;2024-03-25T03:24:47;9.00;;;2.10;;
5805;SDS011;2929;50.810;8.342;2024-03-25T03:27:14;4.10;;;1.70;;
5805;SDS011;2929;50.810;8.342;2024-03-25T03:29:41;15.73;;;2.20;;
5805;SDS011;2929;50.810;8.342;2024-03-25T03:32:07;3.40;;;1.63;;
5805;SDS011;2929;50.810;8.342;2024-03-25T03:34:36;2.73;;;1.67;;
5805;SDS011;2929;50.810;8.342;2024-03-25T03:37:02;5.90;;;1.73;;
5805;SDS011;2929;50.810;8.342;2024-03-25T03:39:29;5.93;;;2.00;;
5805;SDS011;2929;50.810;8.342;2024-03-25T03:41:56;10.73;;;2.30;;
5805;SDS011;2929;50.810;8.342;2024-03-25T03:44:24;9.97;;;2.80;;
5805;SDS011;2929;50.810;8.342;2024-03-25T03:46:50;4.37;;;2.40;;
5805;SDS011;2929;50.810;8.342;2024-03-25T03:49:17;9.03;;;2.10;;
5805;SDS011;2929;50.810;8.342;2024-03-25T03:51:45;9.50;;;2.80;;
5805;SDS011;2929;50.810;8.342;2024-03-25T03:54:12;9.53;;;2.60;;
5805;SDS011;2929;50.810;8.342;2024-03-25T03:56:38;5.70;;;2.50;;
5805;SDS011;2929;50.810;8.342;2024-03-25T03:59:06;14.77;;;3.27;;
5805;SDS011;2929;50.810;8.342;2024-03-25T04:01:32;9.50;;;2.60;;
5805;SDS011;2929;50.810;8.342;2024-03-25T04:03:59;14.37;;;3.67;;
5805;SDS011;2929;50.810;8.342;2024-03-25T04:06:25;9.03;;;3.13;;
5805;SDS011;2929;50.810;8.342;2024-03-25T04:08:54;4.77;;;3.30;;
5805;SDS011;2929;50.810;8.342;2024-03-25T04:11:20;9.07;;;4.03;;
5805;SDS011;2929;50.810;8.342;2024-03-25T04:13:47;11.60;;;3.43;;
5805;SDS011;2929;50.810;8.342;2024-03-25T04:16:14;13.07;;;3.63;;
5805;SDS011;2929;50.810;8.342;2024-03-25T04:18:41;16.93;;;3.97;;
5805;SDS011;2929;50.810;8.342;2024-03-25T04:21:11;9.53;;;3.80;;
5805;SDS011;2929;50.810;8.342;2024-03-25T04:23:39;11.63;;;4.10;;
5805;SDS011;2929;50.810;8.342;2024-03-25T04:26:07;19.57;;;4.67;;
5805;SDS011;2929;50.810;8.342;2024-03-25T04:28:35;11.70;;;4.20;;
5805;SDS011;2929;50.810;8.342;2024-03-25T04:31:01;15.90;;;4.40;;
5805;SDS011;2929;50.810;8.342;2024-03-25T04:33:28;11.20;;;3.80;;
5805;SDS011;2929;50.810;8.342;2024-03-25T04:35:54;20.87;;;5.27;;
5805;SDS011;2929;50.810;8.342;2024-03-25T04:38:22;15.17;;;4.10;;
5805;SDS011;2929;50.810;8.342;2024-03-25T04:40:48;11.83;;;3.80;;
5805;SDS011;2929;50.810;8.342;2024-03-25T04:43:16;14.37;;;3.90;;
5805;SDS011;2929;50.810;8.342;2024-03-25T04:45:43;28.03;;;5.00;;
5805;SDS011;2929;50.810;8.342;2024-03-25T04:48:09;15.70;;;4.00;;
5805;SDS011;2929;50.810;8.342;2024-03-25T04:50:36;12.67;;;3.83;;
5805;SDS011;2929;50.810;8.342;2024-03-25T04:53:02;10.90;;;4.40;;
5805;SDS011;2929;50.810;8.342;2024-03-25T04:55:28;18.87;;;5.50;;
5805;SDS011;2929;50.810;8.342;2024-03-25T04:57:55;18.90;;;5.00;;
5805;SDS011;2929;50.810;8.342;2024-03-25T05:00:22;11.30;;;4.23;;
5805;SDS011;2929;50.810;8.342;2024-03-25T05:02:49;18.03;;;5.20;;
5805;SDS011;2929;50.810;8.342;2024-03-25T05:05:15;10.10;;;4.40;;
5805;SDS011;2929;50.810;8.342;2024-03-25T05:07:41;21.13;;;4.63;;
5805;SDS011;2929;50.810;8.342;2024-03-25T05:10:08;21.60;;;5.00;;
5805;SDS011;2929;50.810;8.342;2024-03-25T05:12:34;15.57;;;5.40;;
5805;SDS011;2929;50.810;8.342;2024-03-25T05:15:00;17.43;;;5.40;;
5805;SDS011;2929;50.810;8.342;2024-03-25T05:17:28;13.40;;;4.63;;
5805;SDS011;2929;50.810;8.342;2024-03-25T05:19:54;20.37;;;5.13;;
5805;SDS011;2929;50.810;8.342;2024-03-25T05:22:20;15.67;;;4.63;;
5805;SDS011;2929;50.810;8.342;2024-03-25T05:24:47;18.33;;;5.90;;
5805;SDS011;2929;50.810;8.342;2024-03-25T05:27:14;19.07;;;5.30;;
5805;SDS011;2929;50.810;8.342;2024-03-25T05:29:40;20.87;;;4.83;;
5805;SDS011;2929;50.810;8.342;2024-03-25T05:32:07;14.07;;;5.73;;
5805;SDS011;2929;50.810;8.342;2024-03-25T05:34:34;15.97;;;5.30;;
5805;SDS011;2929;50.810;8.342;2024-03-25T05:37:01;15.13;;;4.90;;
5805;SDS011;2929;50.810;8.342;2024-03-25T05:39:27;18.80;;;6.33;;
5805;SDS011;2929;50.810;8.342;2024-03-25T05:41:53;18.67;;;5.10;;
5805;SDS011;2929;50.810;8.342;2024-03-25T05:44:19;19.07;;;6.30;;
5805;SDS011;2929;50.810;8.342;2024-03-25T05:46:47;18.13;;;5.37;;
5805;SDS011;2929;50.810;8.342;2024-03-25T05:49:15;19.00;;;6.63;;
5805;SDS011;2929;50.810;8.342;2024-03-25T05:51:43;20.80;;;6.30;;
5805;SDS011;2929;50.810;8.342;2024-03-25T05:54:09;11.93;;;5.13;;
5805;SDS011;2929;50.810;8.342;2024-03-25T05:56:35;19.37;;;6.27;;
5805;SDS011;2929;50.810;8.342;2024-03-25T05:59:02;27.80;;;6.70;;
5805;SDS011;2929;50.810;8.342;2024-03-25T06:01:28;15.27;;;6.87;;
5805;SDS011;2929;50.810;8.342;2024-03-25T06:03:54;17.20;;;7.10;;
5805;SDS011;2929;50.810;8.342;2024-03-25T06:06:21;23.00;;;7.80;;
5805;SDS011;2929;50.810;8.342;2024-03-25T06:08:48;19.53;;;6.90;;
5805;SDS011;2929;50.810;8.342;2024-03-25T06:11:15;23.97;;;6.70;;
5805;SDS011;2929;50.810;8.342;2024-03-25T06:13:41;16.77;;;6.93;;
5805;SDS011;2929;50.810;8.342;2024-03-25T06:16:07;20.57;;;5.90;;
5805;SDS011;2929;50.810;8.342;2024-03-25T06:18:34;16.67;;;6.53;;
5805;SDS011;2929;50.810;8.342;2024-03-25T06:21:00;18.33;;;6.53;;
5805;SDS011;2929;50.810;8.342;2024-03-25T06:23:27;10.67;;;6.43;;
5805;SDS011;2929;50.810;8.342;2024-03-25T06:25:55;25.53;;;5.40;;
5805;SDS011;2929;50.810;8.342;2024-03-25T06:28:21;26.53;;;7.73;;
5805;SDS011;2929;50.810;8.342;2024-03-25T06:30:48;12.53;;;5.70;;
5805;SDS011;2929;50.810;8.342;2024-03-25T06:33:34;22.93;;;5.50;;
5805;SDS011;2929;50.810;8.342;2024-03-25T06:36:19;19.60;;;6.83;;
5805;SDS011;2929;50.810;8.342;2024-03-25T06:38:45;16.10;;;6.33;;
5805;SDS011;2929;50.810;8.342;2024-03-25T06:41:13;24.43;;;6.73;;
5805;SDS011;2929;50.810;8.342;2024-03-25T06:43:39;22.83;;;6.40;;
5805;SDS011;2929;50.810;8.342;2024-03-25T06:46:07;15.77;;;5.50;;
5805;SDS011;2929;50.810;8.342;2024-03-25T06:48:41;15.70;;;5.50;;
5805;SDS011;2929;50.810;8.342;2024-03-25T06:51:08;20.87;;;5.20;;
5805;SDS011;2929;50.810;8.342;2024-03-25T06:53:35;20.63;;;5.13;;
5805;SDS011;2929;50.810;8.342;2024-03-25T06:56:02;20.73;;;5.60;;
5805;SDS011;2929;50.810;8.342;2024-03-25T06:58:31;17.20;;;5.40;;
5805;SDS011;2929;50.810;8.342;2024-03-25T07:01:03;15.23;;;4.70;;
5805;SDS011;2929;50.810;8.342;2024-03-25T07:03:29;18.70;;;5.30;;
5805;SDS011;2929;50.810;8.342;2024-03-25T07:05:56;15.03;;;5.00;;
5805;SDS011;2929;50.810;8.342;2024-03-25T07:08:22;18.30;;;4.93;;
5805;SDS011;2929;50.810;8.342;2024-03-25T07:10:49;20.83;;;5.00;;
5805;SDS011;2929;50.810;8.342;2024-03-25T07:13:16;11.83;;;4.47;;
5805;SDS011;2929;50.810;8.342;2024-03-25T07:15:43;20.33;;;4.80;;
5805;SDS011;2929;50.810;8.342;2024-03-25T07:18:12;11.20;;;3.97;;
5805;SDS011;2929;50.810;8.342;2024-03-25T07:20:38;20.00;;;3.97;;
5805;SDS011;2929;50.810;8.342;2024-03-25T07:23:04;18.00;;;5.00;;
5805;SDS011;2929;50.810;8.342;2024-03-25T07:25:31;22.23;;;4.63;;
5805;SDS011;2929;50.810;8.342;2024-03-25T07:27:57;15.13;;;4.23;;
5805;SDS011;2929;50.810;8.342;2024-03-25T07:30:24;21.33;;;4.63;;
5805;SDS011;2929;50.810;8.342;2024-03-25T07:32:51;19.00;;;4.50;;
5805;SDS011;2929;50.810;8.342;2024-03-25T07:35:18;17.53;;;4.57;;
5805;SDS011;2929;50.810;8.342;2024-03-25T07:37:46;27.27;;;4.83;;
5805;SDS011;2929;50.810;8.342;2024-03-25T07:40:13;13.33;;;3.23;;
5805;SDS011;2929;50.810;8.342;2024-03-25T07:42:39;14.73;;;3.30;;
5805;SDS011;2929;50.810;8.342;2024-03-25T07:45:06;9.70;;;3.63;;
5805;SDS011;2929;50.810;8.342;2024-03-25T07:47:32;12.43;;;3.43;;
5805;SDS011;2929;50.810;8.342;2024-03-25T07:50:01;8.77;;;2.50;;
5805;SDS011;2929;50.810;8.342;2024-03-25T07:52:28;24.80;;;3.80;;
5805;SDS011;2929;50.810;8.342;2024-03-25T07:54:55;7.80;;;2.90;;
5805;SDS011;2929;50.810;8.342;2024-03-25T07:57:21;11.13;;;3.90;;
5805;SDS011;2929;50.810;8.342;2024-03-25T07:59:47;14.17;;;3.50;;
5805;SDS011;2929;50.810;8.342;2024-03-25T08:02:14;14.87;;;3.03;;
5805;SDS011;2929;50.810;8.342;2024-03-25T08:04:40;13.20;;;2.50;;
5805;SDS011;2929;50.810;8.342;2024-03-25T08:07:08;10.97;;;2.40;;
5805;SDS011;2929;50.810;8.342;2024-03-25T08:09:35;9.57;;;2.97;;
5805;SDS011;2929;50.810;8.342;2024-03-25T08:12:01;20.73;;;3.00;;
5805;SDS011;2929;50.810;8.342;2024-03-25T08:14:27;9.10;;;2.77;;
5805;SDS011;2929;50.810;8.342;2024-03-25T08:16:54;6.87;;;3.17;;
5805;SDS011;2929;50.810;8.342;2024-03-25T08:19:20;5.90;;;2.63;;
5805;SDS011;2929;50.810;8.342;2024-03-25T08:21:47;10.03;;;3.70;;
5805;SDS011;2929;50.810;8.342;2024-03-25T08:24:16;10.03;;;3.37;;
5805;SDS011;2929;50.810;8.342;2024-03-25T08:26:42;14.43;;;4.83;;
5805;SDS011;2929;50.810;8.342;2024-03-25T08:29:11;17.23;;;3.10;;
5805;SDS011;2929;50.810;8.342;2024-03-25T08:31:40;17.70;;;3.40;;
5805;SDS011;2929;50.810;8.342;2024-03-25T08:34:06;15.07;;;3.93;;
5805;SDS011;2929;50.810;8.342;2024-03-25T08:36:33;11.93;;;3.27;;
5805;SDS011;2929;50.810;8.342;2024-03-25T08:38:59;17.20;;;4.80;;
5805;SDS011;2929;50.810;8.342;2024-03-25T08:41:27;10.90;;;2.80;;
5805;SDS011;2929;50.810;8.342;2024-03-25T08:43:53;17.23;;;3.13;;
5805;SDS011;2929;50.810;8.342;2024-03-25T08:46:20;19.27;;;4.07;;
5805;SDS011;2929;50.810;8.342;2024-03-25T08:48:46;8.77;;;3.10;;
5805;SDS011;2929;50.810;8.342;2024-03-25T08:51:16;11.23;;;3.50;;
5805;SDS011;2929;50.810;8.342;2024-03-25T08:53:42;11.60;;;3.57;;
5805;SDS011;2929;50.810;8.342;2024-03-25T08:56:08;13.33;;;3.33;;
5805;SDS011;2929;50.810;8.342;2024-03-25T08:58:36;12.40;;;3.00;;
5805;SDS011;2929;50.810;8.342;2024-03-25T09:01:04;12.70;;;2.70;;
5805;SDS011;2929;50.810;8.342;2024-03-25T09:03:31;8.30;;;2.93;;
5805;SDS011;2929;50.810;8.342;2024-03-25T09:05:57;6.23;;;2.50;;
5805;SDS011;2929;50.810;8.342;2024-03-25T09:08:24;15.80;;;2.70;;
5805;SDS011;2929;50.810;8.342;2024-03-25T09:10:51;12.80;;;3.03;;
5805;SDS011;2929;50.810;8.342;2024-03-25T09:13:30;15.10;;;3.20;;
5805;SDS011;2929;50.810;8.342;2024-03-25T09:15:58;16.43;;;3.47;;
5805;SDS011;2929;50.810;8.342;2024-03-25T09:18:24;13.77;;;3.47;;
5805;SDS011;2929;50.810;8.342;2024-03-25T09:20:52;7.20;;;2.97;;
5805;SDS011;2929;50.810;8.342;2024-03-25T09:23:19;15.23;;;2.60;;
5805;SDS011;2929;50.810;8.342;2024-03-25T09:25:52;9.80;;;2.33;;
5805;SDS011;2929;50.810;8.342;2024-03-25T09:28:18;14.67;;;3.70;;
5805;SDS011;2929;50.810;8.342;2024-03-25T09:30:45;9.33;;;2.07;;
5805;SDS011;2929;50.810;8.342;2024-03-25T09:33:13;9.63;;;2.77;;
5805;SDS011;2929;50.810;8.342;2024-03-25T09:35:39;10.77;;;2.63;;
5805;SDS011;2929;50.810;8.342;2024-03-25T09:38:06;16.57;;;2.90;;
5805;SDS011;2929;50.810;8.342;2024-03-25T09:40:32;12.47;;;2.90;;
5805;SDS011;2929;50.810;8.342;2024-03-25T09:43:02;7.30;;;2.67;;
5805;SDS011;2929;50.810;8.342;2024-03-25T09:45:30;11.33;;;2.30;;
5805;SDS011;2929;50.810;8.342;2024-03-25T09:47:58;13.13;;;2.90;;
5805;SDS011;2929;50.810;8.342;2024-03-25T09:50:26;8.87;;;2.80;;
5805;SDS011;2929;50.810;8.342;2024-03-25T09:52:52;17.80;;;2.60;;
5805;SDS011;2929;50.810;8.342;2024-03-25T09:55:19;9.80;;;2.50;;
5805;SDS011;2929;50.810;8.342;2024-03-25T09:57:45;8.23;;;2.70;;
5805;SDS011;2929;50.810;8.342;2024-03-25T10:00:12;19.40;;;2.93;;
5805;SDS011;2929;50.810;8.342;2024-03-25T10:02:41;10.60;;;2.63;;
5805;SDS011;2929;50.810;8.342;2024-03-25T10:05:08;8.20;;;1.90;;
5805;SDS011;2929;50.810;8.342;2024-03-25T10:07:36;14.67;;;2.40;;
5805;SDS011;2929;50.810;8.342;2024-03-25T10:10:03;6.40;;;2.30;;
5805;SDS011;2929;50.810;8.342;2024-03-25T10:12:32;9.60;;;2.70;;
5805;SDS011;2929;50.810;8.342;2024-03-25T10:14:58;8.00;;;2.20;;
5805;SDS011;2929;50.810;8.342;2024-03-25T10:17:25;4.30;;;2.20;;
5805;SDS011;2929;50.810;8.342;2024-03-25T10:19:53;8.23;;;2.50;;
5805;SDS011;2929;50.810;8.342;2024-03-25T10:22:19;4.77;;;2.13;;
5805;SDS011;2929;50.810;8.342;2024-03-25T10:24:49;7.10;;;2.13;;
5805;SDS011;2929;50.810;8.342;2024-03-25T10:27:17;8.07;;;2.50;;
5805;SDS011;2929;50.810;8.342;2024-03-25T10:29:44;6.47;;;2.10;;
5805;SDS011;2929;50.810;8.342;2024-03-25T10:32:10;10.80;;;2.63;;
5805;SDS011;2929;50.810;8.342;2024-03-25T10:34:37;10.03;;;2.47;;
5805;SDS011;2929;50.810;8.342;2024-03-25T10:37:04;9.17;;;2.47;;
5805;SDS011;2929;50.810;8.342;2024-03-25T10:39:31;7.37;;;1.73;;
5805;SDS011;2929;50.810;8.342;2024-03-25T10:42:00;9.63;;;2.27;;
5805;SDS011;2929;50.810;8.342;2024-03-25T10:44:27;7.47;;;2.23;;
5805;SDS011;2929;50.810;8.342;2024-03-25T10:46:57;12.43;;;1.97;;
5805;SDS011;2929;50.810;8.342;2024-03-25T10:49:31;13.33;;;1.73;;
5805;SDS011;2929;50.810;8.342;2024-03-25T10:51:59;12.67;;;2.07;;
5805;SDS011;2929;50.810;8.342;2024-03-25T10:54:26;4.70;;;1.67;;
5805;SDS011;2929;50.810;8.342;2024-03-25T10:56:55;4.30;;;1.63;;
5805;SDS011;2929;50.810;8.342;2024-03-25T10:59:23;4.20;;;1.67;;
5805;SDS011;2929;50.810;8.342;2024-03-25T11:01:50;15.33;;;2.00;;
5805;SDS011;2929;50.810;8.342;2024-03-25T11:04:16;2.40;;;1.83;;
5805;SDS011;2929;50.810;8.342;2024-03-25T11:06:43;3.50;;;1.30;;
5805;SDS011;2929;50.810;8.342;2024-03-25T11:09:10;11.10;;;1.80;;
5805;SDS011;2929;50.810;8.342;2024-03-25T11:11:36;8.70;;;1.70;;
5805;SDS011;2929;50.810;8.342;2024-03-25T11:14:03;8.53;;;1.60;;
5805;SDS011;2929;50.810;8.342;2024-03-25T11:16:32;13.53;;;2.30;;
5805;SDS011;2929;50.810;8.342;2024-03-25T11:19:00;3.23;;;1.37;;
5805;SDS011;2929;50.810;8.342;2024-03-25T11:21:27;10.20;;;1.87;;
5805;SDS011;2929;50.810;8.342;2024-03-25T11:23:53;85.40;;;6.80;;
5805;SDS011;2929;50.810;8.342;2024-03-25T11:26:21;17.27;;;1.90;;
5805;SDS011;2929;50.810;8.342;2024-03-25T11:28:48;9.90;;;2.10;;
5805;SDS011;2929;50.810;8.342;2024-03-25T11:31:15;8.73;;;1.70;;
5805;SDS011;2929;50.810;8.342;2024-03-25T11:33:42;8.07;;;1.90;;
5805;SDS011;2929;50.810;8.342;2024-03-25T11:36:09;5.53;;;1.50;;
5805;SDS011;2929;50.810;8.342;2024-03-25T11:38:36;2.93;;;1.23;;
5805;SDS011;2929;50.810;8.342;2024-03-25T11:41:03;9.80;;;1.73;;
5805;SDS011;2929;50.810;8.342;2024-03-25T11:43:30;10.40;;;1.57;;
5805;SDS011;2929;50.810;8.342;2024-03-25T11:45:56;9.73;;;1.70;;
5805;SDS011;2929;50.810;8.342;2024-03-25T11:48:23;8.33;;;1.20;;
5805;SDS011;2929;50.810;8.342;2024-03-25T11:50:51;7.70;;;1.30;;
5805;SDS011;2929;50.810;8.342;2024-03-25T11:53:17;9.67;;;2.13;;
5805;SDS011;2929;50.810;8.342;2024-03-25T11:55:46;4.63;;;1.60;;
5805;SDS011;2929;50.810;8.342;2024-03-25T11:58:13;6.60;;;1.60;;
5805;SDS011;2929;50.810;8.342;2024-03-25T12:00:43;33.20;;;5.53;;
5805;SDS011;2929;50.810;8.342;2024-03-25T12:03:11;3.67;;;1.20;;
5805;SDS011;2929;50.810;8.342;2024-03-25T12:05:41;5.23;;;1.53;;
5805;SDS011;2929;50.810;8.342;2024-03-25T12:08:09;4.47;;;1.80;;
5805;SDS011;2929;50.810;8.342;2024-03-25T12:10:36;5.90;;;1.47;;
5805;SDS011;2929;50.810;8.342;2024-03-25T12:13:23;6.87;;;2.17;;
5805;SDS011;2929;50.810;8.342;2024-03-25T12:15:50;9.53;;;1.80;;
5805;SDS011;2929;50.810;8.342;2024-03-25T12:18:16;4.57;;;1.33;;
5805;SDS011;2929;50.810;8.342;2024-03-25T12:20:44;4.83;;;1.57;;
5805;SDS011;2929;50.810;8.342;2024-03-25T12:23:12;4.23;;;1.33;;
5805;SDS011;2929;50.810;8.342;2024-03-25T12:25:39;7.23;;;1.60;;
5805;SDS011;2929;50.810;8.342;2024-03-25T12:28:08;6.90;;;1.80;;
5805;SDS011;2929;50.810;8.342;2024-03-25T12:30:40;8.53;;;1.87;;
5805;SDS011;2929;50.810;8.342;2024-03-25T12:33:07;6.10;;;1.67;;
5805;SDS011;2929;50.810;8.342;2024-03-25T12:35:34;5.77;;;2.23;;
5805;SDS011;2929;50.810;8.342;2024-03-25T12:38:01;6.80;;;1.57;;
5805;SDS011;2929;50.810;8.342;2024-03-25T12:40:28;5.53;;;1.53;;
5805;SDS011;2929;50.810;8.342;2024-03-25T12:42:56;6.63;;;1.67;;
5805;SDS011;2929;50.810;8.342;2024-03-25T12:45:23;11.50;;;2.50;;
5805;SDS011;2929;50.810;8.342;2024-03-25T12:50:15;11.43;;;2.20;;
5805;SDS011;2929;50.810;8.342;2024-03-25T12:52:42;6.53;;;1.73;;
5805;SDS011;2929;50.810;8.342;2024-03-25T12:55:08;8.23;;;2.03;;
5805;SDS011;2929;50.810;8.342;2024-03-25T12:57:36;4.43;;;1.63;;
5805;SDS011;2929;50.810;8.342;2024-03-25T13:00:03;10.73;;;1.90;;
5805;SDS011;2929;50.810;8.342;2024-03-25T13:02:29;7.33;;;1.30;;
5805;SDS011;2929;50.810;8.342;2024-03-25T13:04:56;5.33;;;1.57;;
5805;SDS011;2929;50.810;8.342;2024-03-25T13:07:23;6.50;;;1.83;;
5805;SDS011;2929;50.810;8.342;2024-03-25T13:09:49;7.33;;;1.57;;
5805;SDS011;2929;50.810;8.342;2024-03-25T13:12:15;8.03;;;1.47;;
5805;SDS011;2929;50.810;8.342;2024-03-25T13:14:43;4.43;;;1.87;;
5805;SDS011;2929;50.810;8.342;2024-03-25T13:17:10;7.03;;;1.80;;
5805;SDS011;2929;50.810;8.342;2024-03-25T13:19:36;6.30;;;1.90;;
5805;SDS011;2929;50.810;8.342;2024-03-25T13:22:02;2.93;;;1.33;;
5805;SDS011;2929;50.810;8.342;2024-03-25T13:24:29;4.40;;;1.37;;
5805;SDS011;2929;50.810;8.342;2024-03-25T13:26:55;6.77;;;1.40;;
5805;SDS011;2929;50.810;8.342;2024-03-25T13:29:21;3.97;;;1.20;;
5805;SDS011;2929;50.810;8.342;2024-03-25T13:31:49;2.73;;;1.13;;
5805;SDS011;2929;50.810;8.342;2024-03-25T13:34:17;9.30;;;1.50;;
5805;SDS011;2929;50.810;8.342;2024-03-25T13:36:46;4.07;;;1.27;;
5805;SDS011;2929;50.810;8.342;2024-03-25T13:39:13;7.70;;;1.40;;
5805;SDS011;2929;50.810;8.342;2024-03-25T13:41:39;11.87;;;1.40;;
5805;SDS011;2929;50.810;8.342;2024-03-25T13:44:05;16.30;;;1.70;;
5805;SDS011;2929;50.810;8.342;2024-03-25T13:46:32;5.93;;;1.40;;
5805;SDS011;2929;50.810;8.342;2024-03-25T13:49:00;5.07;;;1.57;;
5805;SDS011;2929;50.810;8.342;2024-03-25T13:51:27;12.60;;;1.37;;
5805;SDS011;2929;50.810;8.342;2024-03-25T13:53:54;5.40;;;1.30;;
5805;SDS011;2929;50.810;8.342;2024-03-25T13:56:20;3.50;;;1.43;;
5805;SDS011;2929;50.810;8.342;2024-03-25T13:58:46;10.63;;;1.60;;
5805;SDS011;2929;50.810;8.342;2024-03-25T14:01:13;4.27;;;1.50;;
5805;SDS011;2929;50.810;8.342;2024-03-25T14:03:39;2.73;;;1.10;;
5805;SDS011;2929;50.810;8.342;2024-03-25T14:06:07;6.00;;;1.80;;
5805;SDS011;2929;50.810;8.342;2024-03-25T14:08:33;7.20;;;1.37;;
5805;SDS011;2929;50.810;8.342;2024-03-25T14:11:02;7.23;;;2.00;;
5805;SDS011;2929;50.810;8.342;2024-03-25T14:13:28;7.93;;;1.53;;
5805;SDS011;2929;50.810;8.342;2024-03-25T14:15:55;5.70;;;1.70;;
5805;SDS011;2929;50.810;8.342;2024-03-25T14:18:21;6.23;;;1.77;;
5805;SDS011;2929;50.810;8.342;2024-03-25T14:20:47;4.67;;;1.80;;
5805;SDS011;2929;50.810;8.342;2024-03-25T14:23:15;2.43;;;1.10;;
5805;SDS011;2929;50.810;8.342;2024-03-25T14:25:41;5.80;;;1.30;;
5805;SDS011;2929;50.810;8.342;2024-03-25T14:28:08;2.93;;;1.30;;
5805;SDS011;2929;50.810;8.342;2024-03-25T14:30:35;6.10;;;1.13;;
5805;SDS011;2929;50.810;8.342;2024-03-25T14:33:01;6.63;;;1.30;;
5805;SDS011;2929;50.810;8.342;2024-03-25T14:35:29;6.90;;;1.50;;
5805;SDS011;2929;50.810;8.342;2024-03-25T14:37:56;3.57;;;1.60;;
5805;SDS011;2929;50.810;8.342;2024-03-25T14:40:23;4.20;;;1.53;;
5805;SDS011;2929;50.810;8.342;2024-03-25T14:42:49;10.00;;;2.00;;
5805;SDS011;2929;50.810;8.342;2024-03-25T14:45:17;3.73;;;1.17;;
5805;SDS011;2929;50.810;8.342;2024-03-25T14:47:43;4.30;;;1.30;;
5805;SDS011;2929;50.810;8.342;2024-03-25T14:50:09;14.40;;;2.70;;
5805;SDS011;2929;50.810;8.342;2024-03-25T14:52:36;3.60;;;1.23;;
5805;SDS011;2929;50.810;8.342;2024-03-25T14:55:03;4.50;;;1.47;;
5805;SDS011;2929;50.810;8.342;2024-03-25T14:57:30;5.20;;;2.23;;
5805;SDS011;2929;50.810;8.342;2024-03-25T14:59:57;6.67;;;1.43;;
5805;SDS011;2929;50.810;8.342;2024-03-25T15:02:23;22.37;;;2.10;;
5805;SDS011;2929;50.810;8.342;2024-03-25T15:04:49;5.07;;;1.40;;
5805;SDS011;2929;50.810;8.342;2024-03-25T15:07:15;6.03;;;1.80;;
5805;SDS011;2929;50.810;8.342;2024-03-25T15:09:42;7.20;;;1.90;;